Time;durP1;ratioP1;P1;durP2;ratioP2;P2;SDS_P1;SDS_P2;PMS_P1;PMS_P2;Temp;Humidity;BMP_temperature;BMP_pressure;BME280_temperature;BME280_humidity;BME280_pressure;Samples;Min_cycle;Max_cycle;Signal;HPM_P1;HPM_P2
2023/10/06 00:00:19;;;;;;;9.80;6.60;;;15.50;99.90;;;;;;6239961;23;20111;-71
2023/10/06 00:03:06;;;;;;;9.18;5.93;;;15.50;99.90;;;;;;6239995;23;20442;-71
2023/10/06 00:05:53;;;;;;;9.93;5.88;;;15.50;99.90;;;;;;6239789;23;20022;-71
2023/10/06 00:08:40;;;;;;;8.70;5.68;;;15.50;99.90;;;;;;6239814;23;20413;-71
2023/10/06 00:11:34;;;;;;;11.73;6.80;;;15.50;99.90;;;;;;6239493;23;20004;-70
2023/10/06 00:14:42;;;;;;;9.85;5.70;;;15.50;99.90;;;;;;6239487;22;20022;-71
2023/10/06 00:17:33;;;;;;;;;;;15.40;99.90;;;;;;6240633;23;20008;-71
2023/10/06 00:20:26;;;;;;;7.05;5.43;;;15.40;99.90;;;;;;6217845;23;19982;-72
2023/10/06 00:23:14;;;;;;;9.73;5.72;;;15.30;99.90;;;;;;6238953;23;20011;-72
2023/10/06 00:26:00;;;;;;;9.55;6.38;;;15.30;99.90;;;;;;6239626;23;20016;-72
2023/10/06 00:28:46;;;;;;;9.13;5.55;;;15.30;99.90;;;;;;6240185;23;20008;-72
2023/10/06 00:31:32;;;;;;;7.45;5.82;;;15.30;99.90;;;;;;6239013;23;20019;-71
2023/10/06 00:34:29;;;;;;;8.70;5.88;;;15.30;99.90;;;;;;6239512;23;20008;-72
2023/10/06 00:37:16;;;;;;;10.10;6.18;;;15.30;99.90;;;;;;6241527;23;20031;-71
2023/10/06 00:40:10;;;;;;;7.68;5.97;;;15.30;99.90;;;;;;6241591;23;20105;-71
2023/10/06 00:43:00;;;;;;;8.40;6.10;;;15.30;99.90;;;;;;6239056;23;20058;-71
2023/10/06 00:45:47;;;;;;;7.75;5.63;;;15.30;99.90;;;;;;6239348;23;20008;-71
2023/10/06 00:48:38;;;;;;;7.32;5.18;;;15.30;99.90;;;;;;6239672;23;20079;-72
2023/10/06 00:51:28;;;;;;;7.13;5.50;;;15.30;99.90;;;;;;6239017;23;20008;-72
2023/10/06 00:54:14;;;;;;;8.32;5.72;;;15.40;99.90;;;;;;6239471;23;20015;-72
2023/10/06 00:57:08;;;;;;;10.63;6.47;;;15.40;99.90;;;;;;6238943;22;20032;-72
2023/10/06 00:59:55;;;;;;;7.82;6.32;;;15.40;99.90;;;;;;6237042;23;20509;-72
2023/10/06 01:02:43;;;;;;;9.48;5.63;;;15.40;99.90;;;;;;6238695;23;20008;-73
2023/10/06 01:05:31;;;;;;;7.43;5.40;;;15.40;99.90;;;;;;6240286;23;20036;-73
2023/10/06 01:08:17;;;;;;;7.95;6.03;;;15.40;99.90;;;;;;6238169;23;20008;-72
2023/10/06 01:11:11;;;;;;;8.18;6.25;;;15.40;99.90;;;;;;6237484;23;20346;-72
2023/10/06 01:13:58;;;;;;;8.90;5.70;;;15.40;99.90;;;;;;6237895;23;20019;-72
2023/10/06 01:16:43;;;;;;;9.43;5.93;;;15.40;99.90;;;;;;6238659;23;20031;-72
2023/10/06 01:19:33;;;;;;;7.78;5.80;;;15.40;99.90;;;;;;6237758;23;20016;-73
2023/10/06 01:22:28;;;;;;;8.52;5.32;;;15.40;99.90;;;;;;6241019;23;20419;-73
2023/10/06 01:28:57;;;;;;;8.75;6.20;;;15.40;99.90;;;;;;6241712;23;20008;-73
2023/10/06 01:31:49;;;;;;;6.32;4.97;;;15.40;99.90;;;;;;6240917;23;20038;-74
2023/10/06 01:34:39;;;;;;;9.60;6.18;;;15.40;99.90;;;;;;6241278;23;20016;-74
2023/10/06 01:37:25;;;;;;;8.00;6.20;;;15.40;99.90;;;;;;6241172;23;20008;-73
2023/10/06 01:40:43;;;;;;;9.43;6.13;;;15.40;99.90;;;;;;6240690;23;20099;-70
2023/10/06 01:43:29;;;;;;;8.60;6.82;;;15.40;99.90;;;;;;6241963;23;20008;-69
2023/10/06 01:46:15;;;;;;;8.57;6.22;;;15.40;99.90;;;;;;6241857;23;20035;-70
2023/10/06 01:49:01;;;;;;;10.50;6.43;;;15.40;99.90;;;;;;6240133;23;20008;-69
2023/10/06 01:51:50;;;;;;;8.15;5.90;;;15.40;99.90;;;;;;6242079;23;20430;-71
2023/10/06 01:54:36;;;;;;;10.38;6.53;;;15.40;99.90;;;;;;6241406;23;20012;-72
2023/10/06 01:57:24;;;;;;;11.57;6.82;;;15.40;99.90;;;;;;6239843;22;20134;-72
2023/10/06 02:00:16;;;;;;;7.55;5.43;;;15.40;99.90;;;;;;6241221;23;20410;-72
2023/10/06 02:03:10;;;;;;;7.97;5.75;;;15.40;99.90;;;;;;6241283;23;20519;-71
2023/10/06 02:05:59;;;;;;;8.90;5.63;;;15.50;99.90;;;;;;6241416;23;20062;-73
2023/10/06 02:08:52;;;;;;;9.55;6.70;;;15.40;99.90;;;;;;6241717;23;20019;-72
2023/10/06 02:11:38;;;;;;;10.35;6.53;;;15.40;99.90;;;;;;6240503;23;20012;-72
2023/10/06 02:14:24;;;;;;;10.48;6.75;;;15.40;99.90;;;;;;6239854;23;20016;-71
2023/10/06 02:17:11;;;;;;;9.27;6.15;;;15.40;99.90;;;;;;6239956;23;20453;-73
2023/10/06 02:19:57;;;;;;;11.68;6.15;;;15.50;99.90;;;;;;6239832;23;20020;-72
2023/10/06 02:22:43;;;;;;;7.68;5.60;;;15.40;99.90;;;;;;6241220;23;20087;-69
2023/10/06 02:25:29;;;;;;;10.05;6.72;;;15.40;99.90;;;;;;6240402;23;20018;-70
2023/10/06 02:28:15;;;;;;;9.98;6.65;;;15.50;99.90;;;;;;6240469;23;20012;-70
2023/10/06 02:31:05;;;;;;;10.27;7.80;;;15.50;99.90;;;;;;6241461;23;20378;-70
2023/10/06 02:33:51;;;;;;;7.82;5.93;;;15.50;99.90;;;;;;6241175;23;20020;-70
2023/10/06 02:36:37;;;;;;;8.90;6.07;;;15.50;99.90;;;;;;6239210;23;20027;-70
2023/10/06 02:39:28;;;;;;;10.30;6.20;;;15.50;99.90;;;;;;6239641;23;20237;-70
2023/10/06 02:42:14;;;;;;;7.07;5.30;;;15.50;99.90;;;;;;6241566;23;20464;-70
2023/10/06 02:45:00;;;;;;;8.90;6.10;;;15.50;99.90;;;;;;6239403;23;20008;-69
2023/10/06 02:47:47;;;;;;;10.10;7.32;;;15.50;99.90;;;;;;6239420;23;20004;-76
2023/10/06 02:50:33;;;;;;;9.70;6.93;;;15.50;99.90;;;;;;6242231;23;20018;-76
2023/10/06 02:53:23;;;;;;;9.68;6.50;;;15.60;99.90;;;;;;6240266;23;20008;-75
2023/10/06 02:56:13;;;;;;;12.45;6.88;;;15.60;99.90;;;;;;6241144;22;20460;-76
2023/10/06 02:59:07;;;;;;;8.55;6.32;;;15.60;99.90;;;;;;6238020;23;20024;-76
2023/10/06 03:02:06;;;;;;;9.75;6.65;;;15.70;99.90;;;;;;6239720;23;20015;-77
2023/10/06 03:05:01;;;;;;;10.20;6.80;;;15.60;99.90;;;;;;6241491;23;20012;-77
2023/10/06 03:07:50;;;;;;;10.88;7.25;;;15.70;99.90;;;;;;6240259;23;20005;-76
2023/10/06 03:10:42;;;;;;;11.38;6.90;;;15.70;99.90;;;;;;6239490;23;20012;-76
2023/10/06 03:13:42;;;;;;;11.38;6.82;;;15.70;99.90;;;;;;6238655;23;20069;-76
2023/10/06 03:16:28;;;;;;;9.20;7.38;;;15.70;99.90;;;;;;6240566;23;20035;-77
2023/10/06 03:19:15;;;;;;;11.85;7.13;;;15.70;99.90;;;;;;6239816;23;20024;-75
2023/10/06 03:22:05;;;;;;;9.88;6.38;;;15.70;99.90;;;;;;6238977;23;20808;-76
2023/10/06 03:25:00;;;;;;;9.52;7.20;;;15.70;99.90;;;;;;6240074;23;20065;-76
2023/10/06 03:27:49;;;;;;;8.82;6.30;;;15.80;99.90;;;;;;6239453;23;20008;-76
2023/10/06 03:30:35;;;;;;;12.95;7.80;;;15.70;99.90;;;;;;6238480;23;20048;-76
2023/10/06 03:33:21;;;;;;;10.23;7.93;;;15.80;99.90;;;;;;6238698;23;20030;-77
2023/10/06 03:36:08;;;;;;;10.80;8.20;;;15.80;99.90;;;;;;6237090;23;20016;-76
2023/10/06 03:38:57;;;;;;;10.95;7.30;;;15.80;99.90;;;;;;6237530;23;20107;-76
2023/10/06 03:41:46;;;;;;;11.05;7.25;;;15.80;99.90;;;;;;6237317;23;20422;-76
2023/10/06 03:44:33;;;;;;;11.77;7.78;;;15.80;99.90;;;;;;6239575;23;20004;-76
2023/10/06 03:47:19;;;;;;;9.70;6.53;;;15.80;99.90;;;;;;6240771;23;20464;-75
2023/10/06 03:50:06;;;;;;;11.15;7.90;;;15.80;99.90;;;;;;6242559;23;20083;-74
2023/10/06 03:52:53;;;;;;;10.32;7.60;;;15.80;99.90;;;;;;6239218;23;20012;-76
2023/10/06 03:55:45;;;;;;;9.82;7.45;;;15.80;99.90;;;;;;6239432;22;20016;-76
2023/10/06 03:58:31;;;;;;;10.52;7.88;;;15.80;99.90;;;;;;6238456;23;20020;-77
2023/10/06 04:01:26;;;;;;;12.35;8.27;;;15.90;99.90;;;;;;6240223;23;20070;-76
2023/10/06 04:04:15;;;;;;;12.95;8.13;;;15.90;99.90;;;;;;6240496;23;20442;-76
2023/10/06 04:07:01;;;;;;;11.95;7.90;;;15.90;99.90;;;;;;6238592;23;20008;-76
2023/10/06 04:09:49;;;;;;;13.25;7.60;;;15.90;99.90;;;;;;6239380;23;20083;-77
2023/10/06 04:12:35;;;;;;;9.27;6.88;;;15.90;99.90;;;;;;6238965;23;20020;-77
2023/10/06 04:15:21;;;;;;;10.48;7.75;;;15.90;99.90;;;;;;6238810;23;20015;-76
2023/10/06 04:18:10;;;;;;;10.95;8.02;;;15.90;99.90;;;;;;6239463;23;20016;-77
2023/10/06 04:20:56;;;;;;;14.10;8.63;;;15.90;99.90;;;;;;6240991;23;20004;-77
2023/10/06 04:23:43;;;;;;;14.05;7.97;;;15.90;99.90;;;;;;6238633;23;20446;-77
2023/10/06 04:26:30;;;;;;;12.88;7.75;;;15.90;99.90;;;;;;6237921;23;20004;-77
2023/10/06 04:29:16;;;;;;;11.65;8.07;;;15.80;99.90;;;;;;6240074;23;20039;-79
2023/10/06 04:32:02;;;;;;;11.60;7.97;;;15.80;99.90;;;;;;6239408;23;20043;-78
2023/10/06 04:34:48;;;;;;;11.18;8.00;;;15.80;99.90;;;;;;6237981;23;20391;-78
2023/10/06 04:37:34;;;;;;;11.57;8.75;;;15.80;99.90;;;;;;6239304;23;20126;-79
2023/10/06 04:40:21;;;;;;;13.95;9.60;;;15.70;99.90;;;;;;6240292;23;20027;-78
2023/10/06 04:43:07;;;;;;;13.75;10.00;;;15.70;99.90;;;;;;6239274;23;20384;-78
2023/10/06 04:45:55;;;;;;;13.85;9.32;;;15.70;99.90;;;;;;6239049;23;20011;-77
2023/10/06 04:48:41;;;;;;;13.50;9.40;;;15.70;99.90;;;;;;6239554;23;20012;-78
2023/10/06 04:51:27;;;;;;;13.55;9.63;;;15.80;99.90;;;;;;6239447;23;20020;-78
2023/10/06 04:54:13;;;;;;;14.07;9.20;;;15.80;99.90;;;;;;6237518;23;20508;-78
2023/10/06 04:56:59;;;;;;;14.30;9.02;;;15.70;99.90;;;;;;6238646;22;20391;-77
2023/10/06 04:59:45;;;;;;;13.50;10.05;;;15.80;99.90;;;;;;6238386;23;20369;-78
2023/10/06 05:02:34;;;;;;;14.32;10.68;;;15.80;99.90;;;;;;6240772;23;20083;-78
2023/10/06 05:05:23;;;;;;;13.82;10.07;;;15.80;99.90;;;;;;6241048;23;20087;-77
2023/10/06 05:08:09;;;;;;;14.05;10.23;;;15.80;99.90;;;;;;6240415;23;20035;-77
2023/10/06 05:10:56;;;;;;;16.02;11.13;;;15.70;99.90;;;;;;6241003;23;20012;-76
2023/10/06 05:13:42;;;;;;;18.13;11.23;;;15.80;99.90;;;;;;6242115;23;20077;-77
2023/10/06 05:16:28;;;;;;;17.88;11.13;;;15.80;99.90;;;;;;6239960;23;20004;-76
2023/10/06 05:19:14;;;;;;;16.98;10.77;;;15.80;99.90;;;;;;6240098;23;20020;-76
2023/10/06 05:22:03;;;;;;;17.70;11.07;;;15.80;99.90;;;;;;6239666;23;20011;-78
2023/10/06 05:24:50;;;;;;;16.95;11.00;;;15.80;99.90;;;;;;6240349;23;20019;-78
2023/10/06 05:27:36;;;;;;;12.77;9.40;;;15.80;99.90;;;;;;6240953;23;20331;-77
2023/10/06 05:30:21;;;;;;;13.68;10.95;;;15.80;99.90;;;;;;6239732;23;20435;-78
2023/10/06 05:33:07;;;;;;;14.35;10.90;;;15.80;99.90;;;;;;6240815;23;20012;-77
2023/10/06 05:35:53;;;;;;;14.32;10.00;;;15.80;99.90;;;;;;6243904;23;20008;-77
2023/10/06 05:38:40;;;;;;;13.15;9.95;;;15.70;99.90;;;;;;6243573;23;20472;-75
2023/10/06 05:41:32;;;;;;;15.07;10.45;;;15.70;99.90;;;;;;6240349;23;20342;-68
2023/10/06 05:44:18;;;;;;;13.65;9.57;;;15.70;99.90;;;;;;6239987;23;20110;-70
2023/10/06 05:47:08;;;;;;;13.32;9.40;;;15.80;99.90;;;;;;6241345;23;20023;-71
2023/10/06 05:49:54;;;;;;;13.88;9.52;;;15.70;99.90;;;;;;6241441;23;20170;-74
2023/10/06 05:52:39;;;;;;;17.02;10.65;;;15.80;99.90;;;;;;6239319;23;20016;-68
2023/10/06 05:55:30;;;;;;;12.77;9.63;;;15.80;99.90;;;;;;6239740;22;20020;-67
2023/10/06 05:58:19;;;;;;;18.63;11.10;;;15.80;99.90;;;;;;6242047;23;20024;-68
2023/10/06 06:01:13;;;;;;;13.27;9.98;;;15.80;99.90;;;;;;6239566;23;20016;-68
2023/10/06 06:04:07;;;;;;;13.15;9.13;;;15.80;99.90;;;;;;6239551;23;20008;-68
2023/10/06 06:06:57;;;;;;;15.98;9.27;;;15.80;99.90;;;;;;6241082;23;20015;-69
2023/10/06 06:09:43;;;;;;;11.73;9.38;;;15.80;99.90;;;;;;6238636;23;20107;-69
2023/10/06 06:12:29;;;;;;;16.27;10.90;;;15.80;99.90;;;;;;6238499;23;20463;-65
2023/10/06 06:15:16;;;;;;;13.90;9.73;;;15.80;99.90;;;;;;6236512;23;20020;-68
2023/10/06 06:18:02;;;;;;;15.77;10.52;;;15.80;99.90;;;;;;6238270;23;20091;-68
2023/10/06 06:20:48;;;;;;;16.80;11.23;;;15.80;99.90;;;;;;6239919;23;20017;-68
2023/10/06 06:23:35;;;;;;;12.23;9.23;;;15.80;99.90;;;;;;6239206;23;20083;-68
2023/10/06 06:26:21;;;;;;;14.18;9.32;;;15.90;99.90;;;;;;6242704;23;20019;-68
2023/10/06 06:29:08;;;;;;;13.88;9.13;;;15.90;99.90;;;;;;6238539;23;20008;-68
2023/10/06 06:31:55;;;;;;;13.10;9.90;;;15.90;99.90;;;;;;6239932;23;20012;-68
2023/10/06 06:34:41;;;;;;;14.50;9.15;;;16.00;99.90;;;;;;6238590;23;20011;-68
2023/10/06 06:37:27;;;;;;;13.85;9.55;;;16.00;99.90;;;;;;6238618;23;20015;-71
2023/10/06 06:40:14;;;;;;;15.95;9.98;;;16.10;99.90;;;;;;6240189;23;20020;-69
2023/10/06 06:43:00;;;;;;;14.20;10.38;;;16.10;99.90;;;;;;6241755;23;20341;-71
2023/10/06 06:45:46;;;;;;;13.43;8.80;;;16.20;99.90;;;;;;6238392;23;20496;-71
2023/10/06 06:48:32;;;;;;;13.68;9.93;;;16.30;99.90;;;;;;6239851;23;20016;-70
2023/10/06 06:51:18;;;;;;;16.05;9.63;;;16.30;99.90;;;;;;6240042;23;20016;-69
2023/10/06 06:54:05;;;;;;;11.93;9.30;;;16.40;99.90;;;;;;6241213;23;20012;-71
2023/10/06 06:56:51;;;;;;;18.42;10.52;;;16.40;99.90;;;;;;6240417;22;20098;-71
2023/10/06 06:59:38;;;;;;;11.65;8.70;;;16.40;99.90;;;;;;6239618;23;20024;-71
2023/10/06 07:02:24;;;;;;;16.55;8.43;;;16.50;99.90;;;;;;6240465;23;20069;-71
2023/10/06 07:05:15;;;;;;;16.08;8.77;;;16.50;99.90;;;;;;6242889;23;20015;-71
2023/10/06 07:08:03;;;;;;;12.25;8.80;;;16.60;99.90;;;;;;6238117;23;20062;-71
2023/10/06 07:10:53;;;;;;;14.10;8.93;;;16.70;99.90;;;;;;6241714;23;20039;-71
2023/10/06 07:13:39;;;;;;;13.40;8.95;;;16.70;99.90;;;;;;6239465;23;20027;-71
2023/10/06 07:16:25;;;;;;;14.38;9.13;;;16.70;99.90;;;;;;6239897;23;20012;-71
2023/10/06 07:19:14;;;;;;;11.38;8.48;;;16.80;99.90;;;;;;6238645;23;20019;-71
2023/10/06 07:22:00;;;;;;;14.88;9.13;;;16.80;99.90;;;;;;6241944;23;20029;-71
2023/10/06 07:24:47;;;;;;;12.93;8.30;;;16.90;99.90;;;;;;6238703;23;20519;-71
2023/10/06 07:27:34;;;;;;;13.32;8.70;;;16.90;99.90;;;;;;6240766;23;20015;-71
2023/10/06 07:30:22;;;;;;;14.98;8.75;;;17.00;99.90;;;;;;6240609;23;20043;-70
2023/10/06 07:33:08;;;;;;;15.20;9.30;;;17.00;99.90;;;;;;6240183;23;20575;-68
2023/10/06 07:35:54;;;;;;;13.93;8.13;;;17.10;99.90;;;;;;6238933;23;20438;-68
2023/10/06 07:38:41;;;;;;;13.32;7.82;;;17.10;99.90;;;;;;6238125;23;20382;-66
2023/10/06 07:41:27;;;;;;;10.63;7.80;;;17.10;99.90;;;;;;6240552;23;20095;-67
2023/10/06 07:44:14;;;;;;;14.82;7.13;;;17.20;99.90;;;;;;6240547;23;20104;-67
2023/10/06 07:47:00;;;;;;;10.18;7.25;;;17.20;99.90;;;;;;6239292;23;20031;-67
2023/10/06 07:49:52;;;;;;;10.23;7.90;;;17.30;99.90;;;;;;6238162;23;20012;-66
2023/10/06 07:52:39;;;;;;;12.90;7.50;;;17.30;99.90;;;;;;6239835;23;20018;-67
2023/10/06 07:55:25;;;;;;;10.45;6.72;;;17.30;99.90;;;;;;6238703;22;20070;-67
2023/10/06 07:58:11;;;;;;;10.90;6.82;;;17.40;99.90;;;;;;6239212;23;20020;-67
2023/10/06 08:00:56;;;;;;;9.63;6.88;;;17.40;99.90;;;;;;6238571;23;20074;-66
2023/10/06 08:03:43;;;;;;;11.35;7.03;;;17.40;99.90;;;;;;6239153;23;20023;-67
2023/10/06 08:06:29;;;;;;;10.73;6.57;;;17.50;99.90;;;;;;6239891;23;20019;-71
2023/10/06 08:09:17;;;;;;;9.70;6.85;;;17.50;99.90;;;;;;6238682;23;20128;-70
2023/10/06 08:12:08;;;;;;;9.50;5.82;;;17.60;99.90;;;;;;6239997;23;20067;-71
2023/10/06 08:14:54;;;;;;;10.80;6.18;;;17.70;99.90;;;;;;6238403;23;20023;-69
2023/10/06 08:17:40;;;;;;;11.57;5.97;;;17.70;99.90;;;;;;6220060;23;20023;-70
2023/10/06 08:20:27;;;;;;;11.23;6.03;;;17.80;99.90;;;;;;6238907;23;20016;-69
2023/10/06 08:23:15;;;;;;;12.15;6.65;;;17.90;99.90;;;;;;6240228;23;20008;-69
2023/10/06 08:26:07;;;;;;;11.50;5.93;;;17.90;99.90;;;;;;6238403;23;20008;-70
2023/10/06 08:28:54;;;;;;;11.00;6.03;;;17.90;99.90;;;;;;6240479;23;20008;-69
2023/10/06 08:31:40;;;;;;;11.93;6.07;;;18.00;99.90;;;;;;6239949;23;20127;-69
2023/10/06 08:34:27;;;;;;;11.75;5.63;;;18.00;99.90;;;;;;6239497;23;20016;-70
2023/10/06 08:37:14;;;;;;;13.48;5.95;;;18.00;99.90;;;;;;6240813;23;20004;-71
2023/10/06 08:40:00;;;;;;;11.02;6.22;;;18.10;99.90;;;;;;6236387;23;20107;-71
2023/10/06 08:42:53;;;;;;;8.05;4.90;;;18.20;99.90;;;;;;6240437;23;20569;-72
2023/10/06 08:45:41;;;;;;;10.05;5.68;;;18.20;99.90;;;;;;6239814;23;20426;-71
2023/10/06 08:48:35;;;;;;;7.82;5.35;;;18.20;99.90;;;;;;6238732;23;20389;-72
2023/10/06 08:51:25;;;;;;;8.40;5.03;;;18.20;99.90;;;;;;6239102;23;20036;-71
2023/10/06 08:54:14;;;;;;;12.45;5.15;;;18.30;99.90;;;;;;6239297;23;20320;-72
2023/10/06 08:57:00;;;;;;;10.48;4.70;;;18.30;99.90;;;;;;6239401;22;20024;-71
2023/10/06 08:59:46;;;;;;;9.98;4.97;;;18.40;99.90;;;;;;6238586;23;20031;-72
2023/10/06 09:02:32;;;;;;;8.38;5.38;;;18.40;99.90;;;;;;6238551;23;20008;-71
2023/10/06 09:05:18;;;;;;;10.45;5.35;;;18.50;99.90;;;;;;6240645;23;20016;-72
2023/10/06 09:08:15;;;;;;;9.45;5.45;;;18.60;99.90;;;;;;6240290;23;20087;-71
2023/10/06 09:11:01;;;;;;;6.30;4.20;;;18.60;99.90;;;;;;6238489;23;20020;-72
2023/10/06 09:14:05;;;;;;;10.32;5.20;;;18.70;99.90;;;;;;6238915;23;20032;-71
2023/10/06 09:16:51;;;;;;;7.93;4.80;;;18.70;99.90;;;;;;6241268;23;20035;-71
2023/10/06 09:19:49;;;;;;;8.02;3.92;;;18.80;99.90;;;;;;6240701;23;20265;-70
2023/10/06 09:22:44;;;;;;;6.93;4.10;;;18.80;99.90;;;;;;6238649;23;20342;-72
2023/10/06 09:25:45;;;;;;;;;;;18.80;99.90;;;;;;6239650;23;20442;-71
2023/10/06 09:28:31;;;;;;;7.07;3.80;;;18.80;99.90;;;;;;6238678;23;19900;-71
2023/10/06 09:31:33;;;;;;;7.35;4.03;;;18.80;99.90;;;;;;6240509;23;20012;-71
2023/10/06 09:34:25;;;;;;;6.57;3.72;;;18.90;99.90;;;;;;6240801;23;20338;-73
2023/10/06 09:37:19;;;;;;;6.47;3.38;;;18.90;99.90;;;;;;6240134;23;20012;-71
2023/10/06 09:40:23;;;;;;;7.22;4.18;;;19.00;99.80;;;;;;6238113;23;20027;-71
2023/10/06 09:43:13;;;;;;;9.32;3.30;;;19.10;99.70;;;;;;6240024;23;20004;-71
2023/10/06 09:46:08;;;;;;;5.55;3.50;;;19.20;99.50;;;;;;6239861;23;20008;-72
2023/10/06 09:48:57;;;;;;;8.25;4.15;;;19.20;99.50;;;;;;6241445;23;20004;-72
2023/10/06 09:51:45;;;;;;;8.68;3.75;;;19.30;99.30;;;;;;6243152;23;20042;-71
2023/10/06 09:54:32;;;;;;;6.50;3.63;;;19.40;99.10;;;;;;6240161;23;20319;-70
2023/10/06 09:57:19;;;;;;;10.73;3.65;;;19.40;98.90;;;;;;6242495;22;20074;-70
2023/10/06 10:00:15;;;;;;;7.45;2.90;;;19.50;98.80;;;;;;6238923;23;20082;-71
2023/10/06 10:03:03;;;;;;;7.70;3.35;;;19.50;98.70;;;;;;6240246;23;20012;-71
2023/10/06 10:05:49;;;;;;;6.53;3.70;;;19.60;98.60;;;;;;6240471;23;20041;-69
2023/10/06 10:08:40;;;;;;;7.18;3.20;;;19.70;98.40;;;;;;6242502;23;20457;-71
2023/10/06 10:11:39;;;;;;;5.35;3.10;;;19.70;98.00;;;;;;6242185;23;20036;-70
2023/10/06 10:15:02;;;;;;;5.20;3.05;;;19.80;97.80;;;;;;6238195;23;20027;-70
2023/10/06 10:18:08;;;;;;;5.38;2.67;;;19.80;97.70;;;;;;6240813;23;20008;-70
2023/10/06 10:20:56;;;;;;;;;;;19.90;97.60;;;;;;6240978;23;20517;-70
2023/10/06 10:23:43;;;;;;;4.72;2.53;;;19.90;98.10;;;;;;6243014;23;19990;-71
2023/10/06 10:26:34;;;;;;;5.82;2.63;;;19.90;97.80;;;;;;6239706;23;20012;-70
2023/10/06 10:29:19;;;;;;;6.72;2.45;;;19.80;97.60;;;;;;6239450;23;20331;-70
2023/10/06 10:32:14;;;;;;;10.32;2.97;;;19.90;97.40;;;;;;6240866;23;20012;-70
2023/10/06 10:35:12;;;;;;;7.07;2.27;;;19.90;97.10;;;;;;6240473;23;20015;-70
2023/10/06 10:38:01;;;;;;;4.35;2.55;;;19.90;96.90;;;;;;6239750;23;20715;-70
2023/10/06 10:40:48;;;;;;;7.40;2.40;;;20.00;96.80;;;;;;6219528;23;20012;-70
2023/10/06 10:43:53;;;;;;;11.43;2.95;;;20.00;96.60;;;;;;6237904;23;20027;-70
2023/10/06 10:46:47;;;;;;;6.55;2.55;;;20.00;96.50;;;;;;6238448;23;20031;-68
2023/10/06 10:49:33;;;;;;;7.07;2.90;;;20.10;96.30;;;;;;6240241;23;20008;-67
2023/10/06 10:52:20;;;;;;;7.07;2.55;;;20.10;96.20;;;;;;6240736;23;20058;-75
2023/10/06 10:55:07;;;;;;;6.65;2.83;;;20.10;96.00;;;;;;6239706;23;20008;-74
2023/10/06 10:57:53;;;;;;;6.28;3.15;;;20.10;95.80;;;;;;6238202;23;20386;-76
2023/10/06 11:01:17;;;;;;;5.10;3.00;;;20.10;95.80;;;;;;6241091;23;20024;-75
2023/10/06 11:04:18;;;;;;;6.90;3.20;;;20.00;95.90;;;;;;6240372;23;20016;-75
2023/10/06 11:07:12;;;;;;;5.15;2.92;;;20.00;95.70;;;;;;6239633;23;20503;-78
2023/10/06 11:09:58;;;;;;;5.75;2.80;;;20.00;95.60;;;;;;6239761;23;20016;-76
2023/10/06 11:12:44;;;;;;;4.95;2.05;;;20.10;95.60;;;;;;6240393;23;20421;-75
2023/10/06 11:15:31;;;;;;;4.57;2.70;;;20.10;95.40;;;;;;6240106;23;20043;-74
2023/10/06 11:18:22;;;;;;;5.20;2.63;;;20.10;95.10;;;;;;6239616;23;20468;-75
2023/10/06 11:21:24;;;;;;;6.03;2.45;;;20.20;95.00;;;;;;6239711;23;20016;-75
2023/10/06 11:24:14;;;;;;;5.63;2.60;;;20.20;95.10;;;;;;6240352;23;20008;-76
2023/10/06 11:27:24;;;;;;;4.30;2.20;;;20.20;94.80;;;;;;6240117;23;20087;-78
2023/10/06 11:30:15;;;;;;;4.47;2.30;;;20.30;94.80;;;;;;6241669;23;20008;-77
2023/10/06 11:33:04;;;;;;;5.32;2.75;;;20.30;94.60;;;;;;6237465;23;20016;-72
2023/10/06 11:35:54;;;;;;;4.72;2.28;;;20.40;94.40;;;;;;6237997;23;20004;-79
2023/10/06 11:38:40;;;;;;;4.18;1.80;;;20.40;94.20;;;;;;6239401;23;20043;-73
2023/10/06 11:41:27;;;;;;;5.35;2.58;;;20.40;94.00;;;;;;6239265;23;20016;-77
2023/10/06 11:44:13;;;;;;;5.00;2.20;;;20.40;94.00;;;;;;6239379;23;20299;-75
2023/10/06 11:46:59;;;;;;;5.25;2.30;;;20.40;94.10;;;;;;6238680;23;20091;-74
2023/10/06 11:49:59;;;;;;;4.00;2.00;;;20.40;94.00;;;;;;6239843;23;20024;-77
2023/10/06 11:52:45;;;;;;;6.82;2.22;;;20.40;93.90;;;;;;6240517;23;20016;-75
2023/10/06 11:55:34;;;;;;;6.65;2.42;;;20.40;93.90;;;;;;6238882;22;20019;-80
2023/10/06 11:58:35;;;;;;;4.85;2.30;;;20.40;93.80;;;;;;6239796;23;20350;-73
2023/10/06 12:01:32;;;;;;;5.25;2.22;;;20.50;93.80;;;;;;6239472;23;20023;-71
2023/10/06 12:04:31;;;;;;;6.00;2.50;;;20.50;93.80;;;;;;6240251;23;20062;-71
2023/10/06 12:07:23;;;;;;;4.10;2.22;;;20.50;93.80;;;;;;6237199;23;20083;-74
2023/10/06 12:10:09;;;;;;;5.28;2.78;;;20.60;93.80;;;;;;6239562;23;20031;-75
2023/10/06 12:12:55;;;;;;;4.10;1.92;;;20.60;93.80;;;;;;6239799;23;20012;-75
2023/10/06 12:15:44;;;;;;;7.80;2.60;;;20.60;93.80;;;;;;6238937;23;20012;-74
2023/10/06 12:18:30;;;;;;;4.95;2.22;;;20.60;93.70;;;;;;6240615;23;20442;-74
2023/10/06 12:21:17;;;;;;;9.02;2.10;;;20.60;93.40;;;;;;6237824;23;20073;-74
2023/10/06 12:24:03;;;;;;;5.57;2.22;;;20.60;93.30;;;;;;6239790;23;20008;-74
2023/10/06 12:26:49;;;;;;;5.28;2.60;;;20.60;93.20;;;;;;6238451;23;20015;-71
2023/10/06 12:29:35;;;;;;;5.75;2.13;;;20.60;93.30;;;;;;6239390;23;20008;-71
2023/10/06 12:32:21;;;;;;;5.72;2.05;;;20.60;93.30;;;;;;6239561;23;20008;-71
2023/10/06 12:35:08;;;;;;;4.30;2.42;;;20.60;93.20;;;;;;6239132;23;20012;-71
2023/10/06 12:37:54;;;;;;;8.20;2.47;;;20.60;93.10;;;;;;6238337;23;20328;-73
2023/10/06 12:40:41;;;;;;;5.43;2.08;;;20.60;93.00;;;;;;6238471;23;20513;-70
2023/10/06 12:43:26;;;;;;;4.20;2.20;;;20.50;93.00;;;;;;6238634;23;20019;-72
2023/10/06 12:46:12;;;;;;;3.83;2.05;;;20.50;93.00;;;;;;6238116;23;20087;-71
2023/10/06 12:48:59;;;;;;;5.85;2.70;;;20.50;93.10;;;;;;6238008;23;20008;-72
2023/10/06 12:51:45;;;;;;;5.63;2.22;;;20.50;92.90;;;;;;6216057;23;20008;-72
2023/10/06 12:54:31;;;;;;;4.18;2.20;;;20.40;92.90;;;;;;6240467;23;20358;-71
2023/10/06 12:57:18;;;;;;;9.60;2.72;;;20.50;92.80;;;;;;6239370;22;20571;-72
2023/10/06 13:00:05;;;;;;;5.70;2.33;;;20.50;92.70;;;;;;6239523;23;20020;-72
2023/10/06 13:02:51;;;;;;;5.82;2.42;;;20.40;92.50;;;;;;6238160;23;20069;-72
2023/10/06 13:05:37;;;;;;;5.93;3.50;;;20.50;92.50;;;;;;6240246;23;20103;-73
2023/10/06 13:08:24;;;;;;;9.65;3.03;;;20.40;92.50;;;;;;6239089;23;20008;-72
2023/10/06 13:11:10;;;;;;;5.95;3.38;;;20.50;92.70;;;;;;6240722;23;20005;-73
2023/10/06 13:13:56;;;;;;;5.18;2.70;;;20.40;92.70;;;;;;6237832;23;20338;-74
2023/10/06 13:16:43;;;;;;;8.57;2.72;;;20.50;92.70;;;;;;6238257;23;20012;-72
2023/10/06 13:19:29;;;;;;;4.50;2.42;;;20.40;92.70;;;;;;6238494;23;20026;-73
2023/10/06 13:22:15;;;;;;;4.18;2.08;;;20.50;92.70;;;;;;6238160;23;20011;-72
2023/10/06 13:25:02;;;;;;;7.57;2.83;;;20.50;92.80;;;;;;6241369;23;20020;-71
2023/10/06 13:27:48;;;;;;;6.93;2.00;;;20.40;92.70;;;;;;6241523;23;20015;-72
2023/10/06 13:30:34;;;;;;;7.32;2.20;;;20.50;92.50;;;;;;6241809;23;20016;-72
2023/10/06 13:33:20;;;;;;;6.20;1.83;;;20.40;92.50;;;;;;6240517;23;20015;-71
2023/10/06 13:36:08;;;;;;;5.60;2.33;;;20.40;92.40;;;;;;6240260;23;20031;-71
2023/10/06 13:38:54;;;;;;;5.20;2.47;;;20.30;92.60;;;;;;6240709;23;20026;-71
2023/10/06 13:41:43;;;;;;;13.43;2.65;;;20.20;93.00;;;;;;6243319;23;20039;-70
2023/10/06 13:44:30;;;;;;;7.70;3.83;;;20.20;93.30;;;;;;6242879;23;20008;-71
2023/10/06 13:47:17;;;;;;;7.47;2.28;;;20.10;93.50;;;;;;6240927;23;20008;-71
2023/10/06 13:50:04;;;;;;;3.03;1.88;;;20.10;93.80;;;;;;6242091;23;20043;-71
2023/10/06 13:52:50;;;;;;;8.38;2.50;;;20.00;93.90;;;;;;6241144;23;20453;-71
2023/10/06 13:55:36;;;;;;;6.90;2.30;;;20.00;94.10;;;;;;6241168;22;20442;-71
2023/10/06 13:58:25;;;;;;;6.60;2.63;;;20.00;94.30;;;;;;6240701;23;20051;-71
2023/10/06 14:01:12;;;;;;;9.30;2.97;;;20.00;94.50;;;;;;6240619;23;20087;-71
2023/10/06 14:03:58;;;;;;;4.93;2.40;;;19.90;94.50;;;;;;6240724;23;20015;-70
2023/10/06 14:06:48;;;;;;;6.63;2.95;;;19.80;94.60;;;;;;6238601;23;20078;-71
2023/10/06 14:09:35;;;;;;;6.25;3.67;;;19.80;94.80;;;;;;6239545;23;20357;-70
2023/10/06 14:12:22;;;;;;;3.10;1.98;;;19.70;94.80;;;;;;6219001;23;20066;-71
2023/10/06 14:15:22;;;;;;;4.38;2.20;;;19.70;95.00;;;;;;6241765;23;20472;-71
2023/10/06 14:18:12;;;;;;;6.03;2.60;;;19.60;95.20;;;;;;6240571;23;20048;-70
2023/10/06 14:21:05;;;;;;;6.63;2.83;;;19.60;95.40;;;;;;6243411;23;20008;-70
2023/10/06 14:23:54;;;;;;;6.63;2.45;;;19.60;95.60;;;;;;6239201;23;20004;-70
2023/10/06 14:26:40;;;;;;;7.25;2.70;;;19.50;95.60;;;;;;6240524;23;20012;-71
2023/10/06 14:29:26;;;;;;;5.18;2.28;;;19.50;95.70;;;;;;6239003;23;20369;-71
2023/10/06 14:32:18;;;;;;;3.78;2.20;;;19.40;95.80;;;;;;6240312;23;20019;-71
2023/10/06 14:47:26;;;;;;;5.18;2.08;;;19.40;96.40;;;;;;6240262;23;20012;-72
2023/10/06 14:50:13;;;;;;;8.30;3.25;;;19.30;96.60;;;;;;6241475;23;20008;-73